sensor_id;sensor_type;location;lat;lon;timestamp;P1;durP1;ratioP1;P2;durP2;ratioP2
75289;SDS011;63883;48.996;20.804;2022-12-29T00:02:10;7.57;;;3.67;;
75289;SDS011;63883;48.996;20.804;2022-12-29T00:04:36;9.82;;;4.90;;
75289;SDS011;63883;48.996;20.804;2022-12-29T00:07:02;13.27;;;5.60;;
75289;SDS011;63883;48.996;20.804;2022-12-29T00:09:29;10.50;;;4.72;;
75289;SDS011;63883;48.996;20.804;2022-12-29T00:11:56;7.93;;;4.10;;
75289;SDS011;63883;48.996;20.804;2022-12-29T00:14:22;6.78;;;4.10;;
75289;SDS011;63883;48.996;20.804;2022-12-29T00:17:07;6.53;;;3.78;;
75289;SDS011;63883;48.996;20.804;2022-12-29T00:19:33;8.20;;;3.92;;
75289;SDS011;63883;48.996;20.804;2022-12-29T00:22:17;10.15;;;3.90;;
75289;SDS011;63883;48.996;20.804;2022-12-29T00:25:02;9.88;;;4.97;;
75289;SDS011;63883;48.996;20.804;2022-12-29T00:27:34;10.27;;;5.05;;
75289;SDS011;63883;48.996;20.804;2022-12-29T00:30:19;16.67;;;6.65;;
75289;SDS011;63883;48.996;20.804;2022-12-29T00:33:12;11.05;;;5.10;;
75289;SDS011;63883;48.996;20.804;2022-12-29T00:36:02;11.00;;;4.95;;
75289;SDS011;63883;48.996;20.804;2022-12-29T00:38:32;9.70;;;4.65;;
75289;SDS011;63883;48.996;20.804;2022-12-29T00:41:20;10.52;;;5.07;;
75289;SDS011;63883;48.996;20.804;2022-12-29T00:44:04;11.02;;;5.45;;
75289;SDS011;63883;48.996;20.804;2022-12-29T00:46:30;8.18;;;5.00;;
75289;SDS011;63883;48.996;20.804;2022-12-29T00:48:57;32.50;;;12.18;;
75289;SDS011;63883;48.996;20.804;2022-12-29T00:51:48;27.02;;;10.00;;
75289;SDS011;63883;48.996;20.804;2022-12-29T00:54:15;17.02;;;6.68;;
75289;SDS011;63883;48.996;20.804;2022-12-29T00:56:41;22.92;;;9.10;;
75289;SDS011;63883;48.996;20.804;2022-12-29T00:59:08;19.02;;;9.00;;
75289;SDS011;63883;48.996;20.804;2022-12-29T01:01:35;16.50;;;8.15;;
75289;SDS011;63883;48.996;20.804;2022-12-29T01:04:01;14.15;;;7.10;;
75289;SDS011;63883;48.996;20.804;2022-12-29T01:06:27;13.48;;;5.93;;
75289;SDS011;63883;48.996;20.804;2022-12-29T01:08:53;15.25;;;6.80;;
75289;SDS011;63883;48.996;20.804;2022-12-29T01:11:38;13.23;;;6.70;;
75289;SDS011;63883;48.996;20.804;2022-12-29T01:14:05;13.27;;;6.78;;
75289;SDS011;63883;48.996;20.804;2022-12-29T01:16:31;12.13;;;5.72;;
75289;SDS011;63883;48.996;20.804;2022-12-29T01:18:57;13.90;;;6.00;;
75289;SDS011;63883;48.996;20.804;2022-12-29T01:21:23;11.43;;;4.93;;
75289;SDS011;63883;48.996;20.804;2022-12-29T01:23:49;10.02;;;5.30;;
75289;SDS011;63883;48.996;20.804;2022-12-29T01:26:15;9.60;;;5.25;;
75289;SDS011;63883;48.996;20.804;2022-12-29T01:28:42;13.68;;;5.57;;
75289;SDS011;63883;48.996;20.804;2022-12-29T01:31:08;69.18;;;23.35;;
75289;SDS011;63883;48.996;20.804;2022-12-29T01:33:34;54.95;;;18.67;;
75289;SDS011;63883;48.996;20.804;2022-12-29T01:36:04;17.50;;;8.52;;
75289;SDS011;63883;48.996;20.804;2022-12-29T01:38:32;13.40;;;6.70;;
75289;SDS011;63883;48.996;20.804;2022-12-29T01:40:58;11.90;;;6.15;;
75289;SDS011;63883;48.996;20.804;2022-12-29T01:46:19;20.02;;;6.93;;
75289;SDS011;63883;48.996;20.804;2022-12-29T01:49:13;12.70;;;6.38;;
75289;SDS011;63883;48.996;20.804;2022-12-29T01:51:53;14.32;;;5.53;;
75289;SDS011;63883;48.996;20.804;2022-12-29T01:54:37;8.18;;;4.82;;
75289;SDS011;63883;48.996;20.804;2022-12-29T01:57:10;13.02;;;6.38;;
75289;SDS011;63883;48.996;20.804;2022-12-29T01:59:42;8.32;;;4.20;;
75289;SDS011;63883;48.996;20.804;2022-12-29T02:02:15;9.57;;;4.47;;
75289;SDS011;63883;48.996;20.804;2022-12-29T02:04:41;15.65;;;6.85;;
75289;SDS011;63883;48.996;20.804;2022-12-29T02:07:13;12.65;;;5.95;;
75289;SDS011;63883;48.996;20.804;2022-12-29T02:09:43;10.10;;;5.78;;
75289;SDS011;63883;48.996;20.804;2022-12-29T02:12:12;11.02;;;5.72;;
75289;SDS011;63883;48.996;20.804;2022-12-29T02:14:38;14.77;;;7.55;;
75289;SDS011;63883;48.996;20.804;2022-12-29T02:22:37;8.20;;;4.40;;
75289;SDS011;63883;48.996;20.804;2022-12-29T02:31:30;6.90;;;3.13;;
75289;SDS011;63883;48.996;20.804;2022-12-29T02:37:03;6.97;;;3.47;;
75289;SDS011;63883;48.996;20.804;2022-12-29T02:53:02;4.68;;;2.83;;
75289;SDS011;63883;48.996;20.804;2022-12-29T02:55:34;12.95;;;5.85;;
75289;SDS011;63883;48.996;20.804;2022-12-29T02:58:13;14.05;;;6.07;;
75289;SDS011;63883;48.996;20.804;2022-12-29T03:04:19;6.97;;;3.83;;
75289;SDS011;63883;48.996;20.804;2022-12-29T03:11:58;12.30;;;5.88;;
75289;SDS011;63883;48.996;20.804;2022-12-29T03:14:39;7.57;;;3.83;;
75289;SDS011;63883;48.996;20.804;2022-12-29T03:20:08;6.00;;;3.25;;
75289;SDS011;63883;48.996;20.804;2022-12-29T03:22:36;6.18;;;3.60;;
75289;SDS011;63883;48.996;20.804;2022-12-29T03:27:38;4.15;;;2.80;;
75289;SDS011;63883;48.996;20.804;2022-12-29T03:30:07;6.00;;;3.03;;
75289;SDS011;63883;48.996;20.804;2022-12-29T03:32:54;5.55;;;3.00;;
75289;SDS011;63883;48.996;20.804;2022-12-29T03:35:23;5.95;;;2.95;;
75289;SDS011;63883;48.996;20.804;2022-12-29T03:37:53;8.23;;;3.60;;
75289;SDS011;63883;48.996;20.804;2022-12-29T03:40:25;6.57;;;3.03;;
75289;SDS011;63883;48.996;20.804;2022-12-29T03:42:53;6.40;;;2.95;;
75289;SDS011;63883;48.996;20.804;2022-12-29T03:45:20;4.88;;;3.00;;
75289;SDS011;63883;48.996;20.804;2022-12-29T03:47:46;4.35;;;2.63;;
75289;SDS011;63883;48.996;20.804;2022-12-29T03:50:12;4.95;;;2.72;;
75289;SDS011;63883;48.996;20.804;2022-12-29T03:52:38;5.25;;;2.70;;
75289;SDS011;63883;48.996;20.804;2022-12-29T03:55:04;5.35;;;3.03;;
75289;SDS011;63883;48.996;20.804;2022-12-29T03:57:30;6.15;;;3.10;;
75289;SDS011;63883;48.996;20.804;2022-12-29T03:59:56;6.65;;;3.58;;
75289;SDS011;63883;48.996;20.804;2022-12-29T04:02:22;3.25;;;1.80;;
75289;SDS011;63883;48.996;20.804;2022-12-29T04:04:47;6.60;;;3.75;;
75289;SDS011;63883;48.996;20.804;2022-12-29T04:07:13;7.15;;;3.35;;
75289;SDS011;63883;48.996;20.804;2022-12-29T04:09:39;6.35;;;3.55;;
75289;SDS011;63883;48.996;20.804;2022-12-29T04:12:04;12.02;;;6.35;;
75289;SDS011;63883;48.996;20.804;2022-12-29T04:14:30;13.35;;;7.43;;
75289;SDS011;63883;48.996;20.804;2022-12-29T04:16:56;10.95;;;6.50;;
75289;SDS011;63883;48.996;20.804;2022-12-29T04:19:22;10.20;;;4.30;;
75289;SDS011;63883;48.996;20.804;2022-12-29T04:21:47;6.65;;;3.47;;
75289;SDS011;63883;48.996;20.804;2022-12-29T04:24:13;8.05;;;3.65;;
75289;SDS011;63883;48.996;20.804;2022-12-29T04:26:39;6.05;;;2.95;;
75289;SDS011;63883;48.996;20.804;2022-12-29T04:29:05;13.98;;;6.65;;
75289;SDS011;63883;48.996;20.804;2022-12-29T04:31:30;21.90;;;9.73;;
75289;SDS011;63883;48.996;20.804;2022-12-29T04:33:56;9.98;;;5.03;;
75289;SDS011;63883;48.996;20.804;2022-12-29T04:36:22;18.05;;;8.52;;
75289;SDS011;63883;48.996;20.804;2022-12-29T04:38:49;17.02;;;7.82;;
75289;SDS011;63883;48.996;20.804;2022-12-29T04:41:14;13.10;;;7.20;;
75289;SDS011;63883;48.996;20.804;2022-12-29T04:43:40;12.50;;;6.45;;
75289;SDS011;63883;48.996;20.804;2022-12-29T04:46:06;16.77;;;8.23;;
75289;SDS011;63883;48.996;20.804;2022-12-29T04:48:32;11.60;;;5.97;;
75289;SDS011;63883;48.996;20.804;2022-12-29T04:50:57;8.90;;;5.00;;
75289;SDS011;63883;48.996;20.804;2022-12-29T04:53:23;10.02;;;5.45;;
75289;SDS011;63883;48.996;20.804;2022-12-29T04:55:50;8.77;;;4.63;;
75289;SDS011;63883;48.996;20.804;2022-12-29T04:58:17;6.75;;;4.00;;
75289;SDS011;63883;48.996;20.804;2022-12-29T05:00:43;9.05;;;4.03;;
75289;SDS011;63883;48.996;20.804;2022-12-29T05:03:09;5.43;;;3.33;;
75289;SDS011;63883;48.996;20.804;2022-12-29T05:05:35;7.55;;;3.33;;
75289;SDS011;63883;48.996;20.804;2022-12-29T05:08:01;5.88;;;3.70;;
75289;SDS011;63883;48.996;20.804;2022-12-29T05:10:27;6.10;;;3.42;;
75289;SDS011;63883;48.996;20.804;2022-12-29T05:12:52;3.72;;;2.38;;
75289;SDS011;63883;48.996;20.804;2022-12-29T05:15:18;5.53;;;3.20;;
75289;SDS011;63883;48.996;20.804;2022-12-29T05:17:44;4.75;;;2.70;;
75289;SDS011;63883;48.996;20.804;2022-12-29T05:20:10;4.78;;;3.05;;
75289;SDS011;63883;48.996;20.804;2022-12-29T05:22:36;5.63;;;3.08;;
75289;SDS011;63883;48.996;20.804;2022-12-29T05:25:02;4.97;;;2.75;;
75289;SDS011;63883;48.996;20.804;2022-12-29T05:27:28;3.75;;;2.33;;
75289;SDS011;63883;48.996;20.804;2022-12-29T05:29:53;3.92;;;2.53;;
75289;SDS011;63883;48.996;20.804;2022-12-29T05:32:20;4.85;;;3.00;;
75289;SDS011;63883;48.996;20.804;2022-12-29T05:34:45;3.75;;;2.30;;
75289;SDS011;63883;48.996;20.804;2022-12-29T05:37:11;4.47;;;2.75;;
75289;SDS011;63883;48.996;20.804;2022-12-29T05:39:37;3.70;;;2.47;;
75289;SDS011;63883;48.996;20.804;2022-12-29T05:42:03;4.30;;;2.10;;
75289;SDS011;63883;48.996;20.804;2022-12-29T05:44:28;3.63;;;2.38;;
75289;SDS011;63883;48.996;20.804;2022-12-29T05:46:54;4.03;;;2.83;;
75289;SDS011;63883;48.996;20.804;2022-12-29T05:49:20;5.47;;;2.97;;
75289;SDS011;63883;48.996;20.804;2022-12-29T05:51:45;4.70;;;3.03;;
75289;SDS011;63883;48.996;20.804;2022-12-29T05:54:11;6.50;;;3.80;;
75289;SDS011;63883;48.996;20.804;2022-12-29T05:56:37;7.95;;;3.45;;
75289;SDS011;63883;48.996;20.804;2022-12-29T05:59:03;4.38;;;2.53;;
75289;SDS011;63883;48.996;20.804;2022-12-29T06:01:29;6.68;;;3.63;;
75289;SDS011;63883;48.996;20.804;2022-12-29T06:03:54;5.32;;;2.78;;
75289;SDS011;63883;48.996;20.804;2022-12-29T06:06:20;4.80;;;2.60;;
75289;SDS011;63883;48.996;20.804;2022-12-29T06:08:45;4.85;;;2.63;;
75289;SDS011;63883;48.996;20.804;2022-12-29T06:11:11;3.90;;;2.67;;
75289;SDS011;63883;48.996;20.804;2022-12-29T06:13:37;3.75;;;2.53;;
75289;SDS011;63883;48.996;20.804;2022-12-29T06:16:03;3.47;;;2.30;;
75289;SDS011;63883;48.996;20.804;2022-12-29T06:18:29;6.18;;;4.00;;
75289;SDS011;63883;48.996;20.804;2022-12-29T06:20:59;7.28;;;4.40;;
75289;SDS011;63883;48.996;20.804;2022-12-29T06:23:26;11.77;;;8.05;;
75289;SDS011;63883;48.996;20.804;2022-12-29T06:25:52;5.00;;;3.78;;
75289;SDS011;63883;48.996;20.804;2022-12-29T06:28:18;7.07;;;3.90;;
75289;SDS011;63883;48.996;20.804;2022-12-29T06:30:44;6.05;;;4.05;;
75289;SDS011;63883;48.996;20.804;2022-12-29T06:33:11;7.53;;;4.43;;
75289;SDS011;63883;48.996;20.804;2022-12-29T06:35:37;11.90;;;7.07;;
75289;SDS011;63883;48.996;20.804;2022-12-29T06:38:03;12.20;;;6.65;;
75289;SDS011;63883;48.996;20.804;2022-12-29T06:40:29;8.98;;;5.10;;
75289;SDS011;63883;48.996;20.804;2022-12-29T06:42:55;16.33;;;7.90;;
75289;SDS011;63883;48.996;20.804;2022-12-29T06:45:21;6.40;;;4.05;;
75289;SDS011;63883;48.996;20.804;2022-12-29T06:47:46;10.60;;;5.30;;
75289;SDS011;63883;48.996;20.804;2022-12-29T06:50:12;7.53;;;4.10;;
75289;SDS011;63883;48.996;20.804;2022-12-29T06:52:38;8.20;;;3.97;;
75289;SDS011;63883;48.996;20.804;2022-12-29T06:55:04;13.93;;;5.63;;
75289;SDS011;63883;48.996;20.804;2022-12-29T06:57:29;12.80;;;5.88;;
75289;SDS011;63883;48.996;20.804;2022-12-29T06:59:55;13.20;;;7.68;;
75289;SDS011;63883;48.996;20.804;2022-12-29T07:02:21;15.85;;;8.65;;
75289;SDS011;63883;48.996;20.804;2022-12-29T07:04:47;22.70;;;10.40;;
75289;SDS011;63883;48.996;20.804;2022-12-29T07:07:13;18.73;;;8.55;;
75289;SDS011;63883;48.996;20.804;2022-12-29T07:09:39;9.52;;;4.82;;
75289;SDS011;63883;48.996;20.804;2022-12-29T07:12:04;12.88;;;7.03;;
75289;SDS011;63883;48.996;20.804;2022-12-29T07:14:31;65.72;;;21.35;;
75289;SDS011;63883;48.996;20.804;2022-12-29T07:16:56;30.45;;;12.18;;
75289;SDS011;63883;48.996;20.804;2022-12-29T07:19:23;30.85;;;13.05;;
75289;SDS011;63883;48.996;20.804;2022-12-29T07:21:48;31.83;;;13.95;;
75289;SDS011;63883;48.996;20.804;2022-12-29T07:24:14;33.75;;;14.63;;
75289;SDS011;63883;48.996;20.804;2022-12-29T07:26:40;56.83;;;21.83;;
75289;SDS011;63883;48.996;20.804;2022-12-29T07:29:06;42.13;;;19.63;;
75289;SDS011;63883;48.996;20.804;2022-12-29T07:31:32;51.00;;;19.48;;
75289;SDS011;63883;48.996;20.804;2022-12-29T07:33:58;35.17;;;14.80;;
75289;SDS011;63883;48.996;20.804;2022-12-29T07:36:23;45.20;;;16.63;;
75289;SDS011;63883;48.996;20.804;2022-12-29T07:38:49;38.60;;;16.60;;
75289;SDS011;63883;48.996;20.804;2022-12-29T07:41:15;33.55;;;13.88;;
75289;SDS011;63883;48.996;20.804;2022-12-29T07:43:41;50.83;;;22.75;;
75289;SDS011;63883;48.996;20.804;2022-12-29T07:46:06;37.20;;;17.77;;
75289;SDS011;63883;48.996;20.804;2022-12-29T07:48:34;41.15;;;18.20;;
75289;SDS011;63883;48.996;20.804;2022-12-29T07:51:01;41.00;;;18.20;;
75289;SDS011;63883;48.996;20.804;2022-12-29T07:53:26;33.85;;;15.13;;
75289;SDS011;63883;48.996;20.804;2022-12-29T07:55:52;17.08;;;7.60;;
75289;SDS011;63883;48.996;20.804;2022-12-29T07:58:18;9.68;;;6.20;;
75289;SDS011;63883;48.996;20.804;2022-12-29T08:00:44;11.10;;;5.97;;
75289;SDS011;63883;48.996;20.804;2022-12-29T08:03:09;9.63;;;5.95;;
75289;SDS011;63883;48.996;20.804;2022-12-29T08:05:35;10.93;;;6.60;;
75289;SDS011;63883;48.996;20.804;2022-12-29T08:08:01;15.07;;;7.28;;
75289;SDS011;63883;48.996;20.804;2022-12-29T08:10:27;14.35;;;9.10;;
75289;SDS011;63883;48.996;20.804;2022-12-29T08:12:53;19.80;;;10.23;;
75289;SDS011;63883;48.996;20.804;2022-12-29T08:15:18;11.50;;;7.32;;
75289;SDS011;63883;48.996;20.804;2022-12-29T08:17:44;12.35;;;7.63;;
75289;SDS011;63883;48.996;20.804;2022-12-29T08:20:10;13.70;;;7.60;;
75289;SDS011;63883;48.996;20.804;2022-12-29T08:22:36;11.95;;;7.10;;
75289;SDS011;63883;48.996;20.804;2022-12-29T08:25:02;12.68;;;6.88;;
75289;SDS011;63883;48.996;20.804;2022-12-29T08:27:28;14.82;;;7.78;;
75289;SDS011;63883;48.996;20.804;2022-12-29T08:29:54;13.13;;;7.65;;
75289;SDS011;63883;48.996;20.804;2022-12-29T08:32:20;13.40;;;7.30;;
75289;SDS011;63883;48.996;20.804;2022-12-29T08:34:45;33.75;;;12.88;;
75289;SDS011;63883;48.996;20.804;2022-12-29T08:37:11;28.83;;;13.00;;
75289;SDS011;63883;48.996;20.804;2022-12-29T08:39:37;62.80;;;21.08;;
75289;SDS011;63883;48.996;20.804;2022-12-29T08:42:03;44.83;;;15.18;;
75289;SDS011;63883;48.996;20.804;2022-12-29T08:44:28;9.43;;;5.20;;
75289;SDS011;63883;48.996;20.804;2022-12-29T08:46:54;3.42;;;2.80;;
75289;SDS011;63883;48.996;20.804;2022-12-29T08:49:19;5.72;;;2.78;;
75289;SDS011;63883;48.996;20.804;2022-12-29T08:51:45;5.53;;;2.78;;
75289;SDS011;63883;48.996;20.804;2022-12-29T08:54:11;4.63;;;2.88;;
75289;SDS011;63883;48.996;20.804;2022-12-29T08:56:37;4.43;;;2.53;;
75289;SDS011;63883;48.996;20.804;2022-12-29T08:59:02;4.63;;;2.92;;
75289;SDS011;63883;48.996;20.804;2022-12-29T09:01:28;4.70;;;2.70;;
75289;SDS011;63883;48.996;20.804;2022-12-29T09:03:55;4.72;;;2.85;;
75289;SDS011;63883;48.996;20.804;2022-12-29T09:06:21;4.72;;;3.00;;
75289;SDS011;63883;48.996;20.804;2022-12-29T09:08:47;12.13;;;6.10;;
75289;SDS011;63883;48.996;20.804;2022-12-29T09:11:14;4.70;;;2.97;;
75289;SDS011;63883;48.996;20.804;2022-12-29T09:13:40;6.13;;;3.50;;
75289;SDS011;63883;48.996;20.804;2022-12-29T09:16:06;5.65;;;3.70;;
75289;SDS011;63883;48.996;20.804;2022-12-29T09:18:33;7.40;;;4.22;;
75289;SDS011;63883;48.996;20.804;2022-12-29T09:21:00;6.60;;;3.42;;
75289;SDS011;63883;48.996;20.804;2022-12-29T09:23:27;9.55;;;4.80;;
75289;SDS011;63883;48.996;20.804;2022-12-29T09:25:53;14.13;;;8.23;;
75289;SDS011;63883;48.996;20.804;2022-12-29T09:28:19;17.83;;;7.30;;
75289;SDS011;63883;48.996;20.804;2022-12-29T09:30:46;6.90;;;3.80;;
75289;SDS011;63883;48.996;20.804;2022-12-29T09:33:12;24.48;;;14.50;;
75289;SDS011;63883;48.996;20.804;2022-12-29T09:35:41;8.60;;;5.07;;
75289;SDS011;63883;48.996;20.804;2022-12-29T09:38:11;13.80;;;6.43;;
75289;SDS011;63883;48.996;20.804;2022-12-29T09:40:38;15.65;;;7.97;;
75289;SDS011;63883;48.996;20.804;2022-12-29T09:45:44;5.70;;;3.40;;
75289;SDS011;63883;48.996;20.804;2022-12-29T09:48:22;6.38;;;3.28;;
75289;SDS011;63883;48.996;20.804;2022-12-29T09:50:55;5.53;;;3.97;;
75289;SDS011;63883;48.996;20.804;2022-12-29T09:53:25;7.63;;;4.05;;
75289;SDS011;63883;48.996;20.804;2022-12-29T09:55:53;5.80;;;3.95;;
75289;SDS011;63883;48.996;20.804;2022-12-29T10:01:28;8.48;;;4.93;;
75289;SDS011;63883;48.996;20.804;2022-12-29T10:03:56;21.50;;;10.18;;
75289;SDS011;63883;48.996;20.804;2022-12-29T10:06:24;9.60;;;4.45;;
75289;SDS011;63883;48.996;20.804;2022-12-29T10:12:21;13.60;;;6.57;;
75289;SDS011;63883;48.996;20.804;2022-12-29T10:23:18;6.45;;;4.05;;
75289;SDS011;63883;48.996;20.804;2022-12-29T10:25:47;8.40;;;5.30;;
75289;SDS011;63883;48.996;20.804;2022-12-29T10:28:21;9.65;;;5.03;;
75289;SDS011;63883;48.996;20.804;2022-12-29T10:31:15;7.40;;;4.30;;
75289;SDS011;63883;48.996;20.804;2022-12-29T10:33:46;8.50;;;5.30;;
75289;SDS011;63883;48.996;20.804;2022-12-29T10:36:16;7.93;;;4.43;;
75289;SDS011;63883;48.996;20.804;2022-12-29T10:41:40;7.65;;;4.55;;
75289;SDS011;63883;48.996;20.804;2022-12-29T10:44:13;8.60;;;4.53;;
75289;SDS011;63883;48.996;20.804;2022-12-29T10:46:41;7.80;;;4.35;;
75289;SDS011;63883;48.996;20.804;2022-12-29T10:49:27;7.82;;;4.50;;
75289;SDS011;63883;48.996;20.804;2022-12-29T10:51:57;8.50;;;4.75;;
75289;SDS011;63883;48.996;20.804;2022-12-29T10:59:30;8.30;;;5.43;;
75289;SDS011;63883;48.996;20.804;2022-12-29T11:02:00;9.52;;;5.43;;
75289;SDS011;63883;48.996;20.804;2022-12-29T11:07:07;8.65;;;5.10;;
75289;SDS011;63883;48.996;20.804;2022-12-29T11:09:35;7.78;;;4.70;;
75289;SDS011;63883;48.996;20.804;2022-12-29T11:17:49;12.32;;;7.35;;
75289;SDS011;63883;48.996;20.804;2022-12-29T11:20:27;18.10;;;9.07;;
75289;SDS011;63883;48.996;20.804;2022-12-29T11:23:01;10.38;;;5.63;;
75289;SDS011;63883;48.996;20.804;2022-12-29T11:25:29;9.93;;;5.55;;
75289;SDS011;63883;48.996;20.804;2022-12-29T11:27:55;19.38;;;10.15;;
75289;SDS011;63883;48.996;20.804;2022-12-29T11:30:23;13.95;;;8.02;;
75289;SDS011;63883;48.996;20.804;2022-12-29T11:32:52;34.25;;;16.23;;
75289;SDS011;63883;48.996;20.804;2022-12-29T11:38:06;51.00;;;22.88;;
75289;SDS011;63883;48.996;20.804;2022-12-29T11:40:45;23.85;;;12.63;;
75289;SDS011;63883;48.996;20.804;2022-12-29T11:43:17;23.70;;;11.80;;
75289;SDS011;63883;48.996;20.804;2022-12-29T11:45:51;106.57;;;34.00;;
75289;SDS011;63883;48.996;20.804;2022-12-29T11:48:19;114.15;;;38.08;;
75289;SDS011;63883;48.996;20.804;2022-12-29T11:50:50;89.20;;;31.42;;
75289;SDS011;63883;48.996;20.804;2022-12-29T11:55:50;51.15;;;22.42;;
75289;SDS011;63883;48.996;20.804;2022-12-29T11:58:18;28.67;;;13.55;;
75289;SDS011;63883;48.996;20.804;2022-12-29T12:00:44;28.30;;;13.30;;
75289;SDS011;63883;48.996;20.804;2022-12-29T12:03:16;35.60;;;19.20;;
75289;SDS011;63883;48.996;20.804;2022-12-29T12:05:49;20.88;;;11.23;;
75289;SDS011;63883;48.996;20.804;2022-12-29T12:11:14;18.63;;;9.07;;
75289;SDS011;63883;48.996;20.804;2022-12-29T12:13:59;11.38;;;7.13;;
75289;SDS011;63883;48.996;20.804;2022-12-29T12:16:39;23.65;;;12.82;;
75289;SDS011;63883;48.996;20.804;2022-12-29T12:24:54;14.98;;;8.57;;
75289;SDS011;63883;48.996;20.804;2022-12-29T12:28:26;27.85;;;11.38;;
75289;SDS011;63883;48.996;20.804;2022-12-29T12:30:23;27.55;;;12.75;;
75289;SDS011;63883;48.996;20.804;2022-12-29T12:55:34;7.70;;;4.75;;
75289;SDS011;63883;48.996;20.804;2022-12-29T13:01:37;7.10;;;4.53;;
75289;SDS011;63883;48.996;20.804;2022-12-29T13:12:28;6.32;;;4.63;;
75289;SDS011;63883;48.996;20.804;2022-12-29T13:17:59;6.80;;;4.53;;
75289;SDS011;63883;48.996;20.804;2022-12-29T13:20:36;7.45;;;4.63;;
75289;SDS011;63883;48.996;20.804;2022-12-29T13:28:49;8.88;;;5.50;;
75289;SDS011;63883;48.996;20.804;2022-12-29T13:31:30;7.50;;;5.60;;
75289;SDS011;63883;48.996;20.804;2022-12-29T13:36:37;8.25;;;4.95;;
75289;SDS011;63883;48.996;20.804;2022-12-29T13:39:11;7.70;;;5.13;;
75289;SDS011;63883;48.996;20.804;2022-12-29T13:41:58;8.20;;;5.57;;
75289;SDS011;63883;48.996;20.804;2022-12-29T13:50:01;7.72;;;5.05;;
75289;SDS011;63883;48.996;20.804;2022-12-29T13:52:39;8.40;;;5.35;;
75289;SDS011;63883;48.996;20.804;2022-12-29T13:55:18;7.30;;;4.90;;
75289;SDS011;63883;48.996;20.804;2022-12-29T14:01:07;6.75;;;5.03;;
75289;SDS011;63883;48.996;20.804;2022-12-29T14:06:16;8.00;;;4.65;;
75289;SDS011;63883;48.996;20.804;2022-12-29T14:08:44;7.85;;;4.72;;
75289;SDS011;63883;48.996;20.804;2022-12-29T14:11:10;7.45;;;4.97;;
75289;SDS011;63883;48.996;20.804;2022-12-29T14:13:40;8.15;;;5.00;;
75289;SDS011;63883;48.996;20.804;2022-12-29T14:16:10;5.80;;;4.28;;
75289;SDS011;63883;48.996;20.804;2022-12-29T14:18:50;9.15;;;4.80;;
75289;SDS011;63883;48.996;20.804;2022-12-29T14:23:43;6.82;;;4.53;;
75289;SDS011;63883;48.996;20.804;2022-12-29T14:31:54;37.35;;;16.27;;
75289;SDS011;63883;48.996;20.804;2022-12-29T14:36:53;52.92;;;20.65;;
75289;SDS011;63883;48.996;20.804;2022-12-29T14:39:29;41.88;;;18.13;;
75289;SDS011;63883;48.996;20.804;2022-12-29T14:42:05;27.88;;;13.38;;
75289;SDS011;63883;48.996;20.804;2022-12-29T14:44:51;25.33;;;12.43;;
75289;SDS011;63883;48.996;20.804;2022-12-29T14:47:38;40.78;;;17.55;;
75289;SDS011;63883;48.996;20.804;2022-12-29T14:52:32;17.13;;;8.43;;
75289;SDS011;63883;48.996;20.804;2022-12-29T14:57:43;36.45;;;14.88;;
75289;SDS011;63883;48.996;20.804;2022-12-29T15:00:22;95.68;;;35.80;;
75289;SDS011;63883;48.996;20.804;2022-12-29T15:08:28;51.40;;;19.70;;
75289;SDS011;63883;48.996;20.804;2022-12-29T15:11:01;19.60;;;9.07;;
75289;SDS011;63883;48.996;20.804;2022-12-29T15:13:35;40.60;;;18.52;;
75289;SDS011;63883;48.996;20.804;2022-12-29T15:16:02;32.05;;;13.77;;
75289;SDS011;63883;48.996;20.804;2022-12-29T15:18:30;73.68;;;28.98;;
75289;SDS011;63883;48.996;20.804;2022-12-29T15:21:06;25.60;;;12.95;;
75289;SDS011;63883;48.996;20.804;2022-12-29T15:23:33;172.35;;;54.30;;
75289;SDS011;63883;48.996;20.804;2022-12-29T15:26:04;249.32;;;74.07;;
75289;SDS011;63883;48.996;20.804;2022-12-29T15:31:11;121.75;;;33.22;;
75289;SDS011;63883;48.996;20.804;2022-12-29T15:33:41;150.93;;;40.67;;
75289;SDS011;63883;48.996;20.804;2022-12-29T15:36:13;58.83;;;21.92;;
75289;SDS011;63883;48.996;20.804;2022-12-29T15:38:47;80.72;;;30.63;;
75289;SDS011;63883;48.996;20.804;2022-12-29T15:46:20;52.72;;;21.75;;
75289;SDS011;63883;48.996;20.804;2022-12-29T15:48:46;42.90;;;21.98;;
75289;SDS011;63883;48.996;20.804;2022-12-29T15:51:24;51.58;;;26.40;;
75289;SDS011;63883;48.996;20.804;2022-12-29T15:53:55;56.65;;;25.50;;
75289;SDS011;63883;48.996;20.804;2022-12-29T15:56:21;63.80;;;31.48;;
75289;SDS011;63883;48.996;20.804;2022-12-29T15:58:48;61.40;;;29.67;;
75289;SDS011;63883;48.996;20.804;2022-12-29T16:01:29;81.30;;;39.15;;
75289;SDS011;63883;48.996;20.804;2022-12-29T16:03:59;64.10;;;30.35;;
75289;SDS011;63883;48.996;20.804;2022-12-29T16:06:38;58.83;;;29.23;;
75289;SDS011;63883;48.996;20.804;2022-12-29T16:09:17;76.53;;;37.03;;
75289;SDS011;63883;48.996;20.804;2022-12-29T16:11:49;84.20;;;39.25;;
75289;SDS011;63883;48.996;20.804;2022-12-29T16:14:30;74.25;;;36.42;;
75289;SDS011;63883;48.996;20.804;2022-12-29T16:17:09;68.65;;;32.38;;
75289;SDS011;63883;48.996;20.804;2022-12-29T16:19:39;59.88;;;30.05;;
75289;SDS011;63883;48.996;20.804;2022-12-29T16:22:14;59.53;;;28.23;;
75289;SDS011;63883;48.996;20.804;2022-12-29T16:24:54;61.53;;;31.05;;
75289;SDS011;63883;48.996;20.804;2022-12-29T16:27:23;68.30;;;34.40;;
75289;SDS011;63883;48.996;20.804;2022-12-29T16:29:56;57.20;;;25.13;;
75289;SDS011;63883;48.996;20.804;2022-12-29T16:32:23;52.05;;;21.73;;
75289;SDS011;63883;48.996;20.804;2022-12-29T16:34:53;50.72;;;21.70;;
75289;SDS011;63883;48.996;20.804;2022-12-29T16:37:35;57.58;;;25.42;;
75289;SDS011;63883;48.996;20.804;2022-12-29T16:42:46;98.70;;;38.20;;
75289;SDS011;63883;48.996;20.804;2022-12-29T16:47:38;63.95;;;26.23;;
75289;SDS011;63883;48.996;20.804;2022-12-29T16:50:10;65.25;;;28.35;;
75289;SDS011;63883;48.996;20.804;2022-12-29T16:52:38;52.92;;;25.15;;
75289;SDS011;63883;48.996;20.804;2022-12-29T16:55:04;46.22;;;21.23;;
75289;SDS011;63883;48.996;20.804;2022-12-29T16:57:31;35.55;;;17.13;;
75289;SDS011;63883;48.996;20.804;2022-12-29T17:00:02;32.28;;;14.95;;
75289;SDS011;63883;48.996;20.804;2022-12-29T17:02:31;33.53;;;17.17;;
75289;SDS011;63883;48.996;20.804;2022-12-29T17:05:00;44.85;;;22.25;;
75289;SDS011;63883;48.996;20.804;2022-12-29T17:07:26;35.72;;;17.15;;
75289;SDS011;63883;48.996;20.804;2022-12-29T17:09:53;38.65;;;18.98;;
75289;SDS011;63883;48.996;20.804;2022-12-29T17:12:21;52.38;;;23.95;;
75289;SDS011;63883;48.996;20.804;2022-12-29T17:14:52;47.05;;;24.13;;
75289;SDS011;63883;48.996;20.804;2022-12-29T17:17:28;46.08;;;21.80;;
75289;SDS011;63883;48.996;20.804;2022-12-29T17:20:05;50.42;;;24.45;;
75289;SDS011;63883;48.996;20.804;2022-12-29T17:22:31;51.40;;;23.83;;
75289;SDS011;63883;48.996;20.804;2022-12-29T17:24:58;60.28;;;27.75;;
75289;SDS011;63883;48.996;20.804;2022-12-29T17:27:37;58.38;;;26.42;;
75289;SDS011;63883;48.996;20.804;2022-12-29T17:30:11;74.82;;;32.35;;
75289;SDS011;63883;48.996;20.804;2022-12-29T17:32:41;118.93;;;48.25;;
75289;SDS011;63883;48.996;20.804;2022-12-29T17:35:18;98.78;;;41.90;;
75289;SDS011;63883;48.996;20.804;2022-12-29T17:37:46;70.35;;;31.92;;
75289;SDS011;63883;48.996;20.804;2022-12-29T17:40:14;74.78;;;32.70;;
75289;SDS011;63883;48.996;20.804;2022-12-29T17:42:46;61.78;;;29.52;;